ADDS METAR Data INFO
IDs: Format: Raw Decoded Include TAF

Data at: 0935 UTC 25 Jun 2018

KMCK 250853Z AUTO 00000KT 10SM BKN100 14/13 A2996 RMK AO2 SLP129 T01390133 51007
KMCK 250753Z AUTO 32007KT 10SM BKN110 14/13 A2996 RMK AO2 SLP127 T01440133
KMCK 250653Z AUTO 35007KT 10SM CLR 16/13 A2995 RMK AO2 SLP123 T01610133
KMCK 250553Z AUTO 33008KT 10SM FEW080 15/13 A2994 RMK AO2 SLP123 60101 T01500133 10183 20144 402560144 56035
KMCK 250453Z AUTO 28013G24KT 10SM FEW013 FEW020 15/13 A2997 RMK AO2 SLP137 T01500133
KMCK 250353Z AUTO VRB05G19KT 10SM FEW100 15/14 A2998 RMK AO2 WSHFT 0314 RAE44 PRESRR SLP138 P0002 T01500139
KMCK 250334Z AUTO 08015KT 10SM -RA FEW038 BKN100 14/13 A2994 RMK AO2 WSHFT 0314 P0002 T01440133
KMCK 250253Z AUTO 30005KT 10SM -RA OVC095 14/14 A3005 RMK AO2 PRESRR SLP164 P0016 60099 T01440139 50030
KMCK 250153Z AUTO 28010KT 4SM RA BR BKN080 OVC090 14/13 A3007 RMK AO2 PK WND 33027/0055 TSB0058E13 SLP171 P0019 T01440133
KMCK 250135Z AUTO 27010KT 5SM RA BR SCT080 OVC095 15/13 A3004 RMK AO2 PK WND 33027/0055 TSB0058E13 P0013 T01500133
KMCK 250119Z AUTO 32011KT 5SM VCTS RA BR FEW060 BKN080 OVC095 15/13 A3003 RMK AO2 PK WND 33027/0055 LTG DSNT ALQDS TSB0058E13 P0008 T01500133
KMCK 250104Z AUTO 31015G27KT 4SM TSRA BR BKN050 BKN075 OVC095 15/13 A3003 RMK AO2 PK WND 33027/0055 LTG DSNT SE AND S TSB0058 P0004 T01500133
KMCK 250053Z AUTO 32019G25KT 4SM RA BR FEW037 OVC045 15/13 A3003 RMK AO2 PK WND 31029/0015 WSHFT 2353 LTG DSNT SE AND S TSE2356B15E39 SLP159 P0064 T01500133
KMCK 250047Z AUTO 31017G25KT 3SM +RA BR FEW018 OVC036 16/14 A3004 RMK AO2 PK WND 31029/0015 WSHFT 2353 LTG DSNT SE-W TSE2356B15E39 P0063
KMCK 250041Z AUTO 31016G25KT 1 1/4SM +RA BR BKN030 OVC037 16/14 A3004 RMK AO2 PK WND 31029/0015 WSHFT 2353 LTG DSNT SE-W TSE2356B15E39 P0060 T01560139
KMCK 250029Z AUTO 32014G27KT 1SM +TSRA BR FEW011 BKN026 OVC042 16/14 A3004 RMK AO2 PK WND 31029/0015 WSHFT 2353 LTG DSNT ALQDS TSE2356B15 P0042 T01560144
KMCK 250022Z AUTO 31016G29KT 1 1/4SM +TSRA BR FEW011 BKN035 OVC042 16/14 A3004 RMK AO2 PK WND 31029/0015 WSHFT 2353 LTG DSNT S-NW TSE2356B15 PRESRR P0024 T01560144
KMCK 250015Z AUTO 31020G29KT 2SM +TSRA BR FEW011 SCT027 OVC042 17/16 A3001 RMK AO2 PK WND 31029/0015 WSHFT 2353 LTG DSNT S-NW TSE2356B15 PRESRR P0012 T01670156
KMCK 250012Z AUTO 29013G23KT 2 1/2SM +RA BR FEW011 OVC042 17/16 A3001 RMK AO2 WSHFT 2353 VIS 1 3/4V4 LTG DSNT S-NW TSE2356 PRESRR P0008 T01720161
KMCK 250002Z AUTO 31011KT 5SM -RA BKN044 OVC055 18/16 A2998 RMK AO2 LTG DSNT S-W TSE2356 PRESRR P0001 T01830156
KMCK 242353Z AUTO 35012KT 7SM -TSRA SCT044 OVC060 18/15 A2995 RMK AO2 WSHFT 2303 LTG DSNT SW-NW RAB33 TSB41 SLP130 P0002 60002 T01830150 10256 20183 53018
KMCK 242323Z AUTO 34014G21KT 10SM SCT038 BKN049 OVC060 21/14 A2994 RMK AO2 WSHFT 2303 LTG DSNT W T02110139
KMCK 242253Z AUTO 18006KT 10SM FEW120 24/14 A2992 RMK AO2 SLP112 T02390144
KMCK 242153Z AUTO 23004KT 10SM SCT110 24/13 A2993 RMK AO2 SLP116 T02440133
KMCK 242053Z AUTO 15008KT 10SM CLR 25/14 A2990 RMK AO2 SLP104 T02500139 58019
KMCK 241953Z AUTO 26009KT 10SM CLR 26/13 A2994 RMK AO2 SLP118 T02560133
KMCK 241853Z AUTO 00000KT 10SM CLR 24/17 A2995 RMK AO2 SLP122 T02390167
KMCK 241753Z AUTO 28003KT 10SM CLR 20/17 A2996 RMK AO2 SLP128 60001 T02000172 10200 20161 53018
KMCK 241653Z AUTO 29003KT 10SM CLR 19/17 A2995 RMK AO2 SLP124 T01940167
KMCK 241553Z AUTO 29005KT 10SM FEW039 FEW055 FEW075 19/16 A2990 RMK AO2 RAB1458E09 SLP108 P0000 T01890161
KMCK 241510Z AUTO 15007KT 10SM FEW050 SCT090 BKN120 18/17 A2989 RMK AO2 LTG DSNT SW RAB1458E09 P0000 T01830167
KMCK 241453Z AUTO 18005KT 10SM VCTS SCT110 18/17 A2990 RMK AO2 SLP107 60001 T01830167 53006
KMCK 241353Z AUTO 31008KT 10SM CLR 18/16 A2990 RMK AO2 SLP106 T01830156
KMCK 241253Z AUTO 29011G22KT 10SM CLR 17/14 A2988 RMK AO2 PK WND 09033/1157 RAE00 SLP101 P0001 T01720144
KMCK 241250Z AUTO 30012G22KT 10SM CLR 17/14 A2988 RMK AO2 PK WND 09033/1157 RAE00 P0001
KMCK 241153Z AUTO 09024G32KT 10SM -RA SCT042 BKN100 16/15 A2975 RMK AO2 PK WND 09032/1152 WSHFT 1138 PRESFR SLP056 P0006 60011 70011 T01610150 10189 20161 58010
KMCK 241053Z AUTO 30011KT 8SM -RA OVC100 17/15 A2996 RMK AO2 PK WND 27027/1009 RAB13 SLP124 P0005 T01670150
KMCK 240953Z AUTO 26016G23KT 10SM CLR 17/14 A2993 RMK AO2 PRESRR SLP110 T01670144
KMCK 240853Z AUTO 05004KT 10SM CLR 17/14 A2978 RMK AO2 SLP060 T01670139 56030
KMCK 240753Z AUTO 08007KT 10SM CLR 17/14 A2980 RMK AO2 PRESFR SLP066 T01670139
KMCK 240653Z AUTO 00000KT 10SM CLR 17/14 A2981 RMK AO2 PK WND 04031/0623 SLP072 T01720139
KMCK 240553Z AUTO 35022G33KT 10SM FEW110 19/13 A2988 RMK AO2 PK WND 35043/0529 SLP093 T01890133 10228 20189 403170122 53034
KMCK 240453Z AUTO 23004KT 10SM CLR 21/13 A2979 RMK AO2 SLP064 T02060133
KMCK 240353Z AUTO 09003KT 10SM CLR 21/13 A2975 RMK AO2 SLP051 T02110133
KMCK 240253Z AUTO 00000KT 10SM CLR 22/13 A2977 RMK AO2 SLP060 T02170133 51003
KMCK 240153Z AUTO 17005KT 10SM FEW035 22/13 A2977 RMK AO2 LTG DSNT SE AND S SLP061 T02220128
KMCK 240123Z AUTO 19008KT 10SM FEW060 SCT075 BKN110 22/14 A2977 RMK AO2 LTG DSNT SE-SW T02170139
KMCK 240108Z AUTO 20009G20KT 10SM VCTS CLR 22/14 A2979 RMK AO2 LTG DSNT SE-W T02170144
KMCK 240053Z AUTO 20015G21KT 10SM CLR 22/13 A2979 RMK AO2 LTG DSNT S-W SLP071 T02220133
KMCK 232353Z AUTO 18013G26KT 10SM CLR 23/13 A2976 RMK AO2 PK WND 18032/2342 LTG DSNT SW AND W SLP062 T02280133 10317 20228 55006
KMCK 232253Z AUTO 18015G24KT 10SM SCT085 28/16 A2976 RMK AO2 LTG DSNT S AND SW SLP058 T02830156
KMCK 232153Z AUTO 16004KT 10SM FEW110 31/13 A2977 RMK AO2 LTG DSNT S AND SW SLP057 T03110128